createdAt,value
2022-11-15T03:31:35.484Z,12.34
2022-11-15T03:34:40.947Z,11.30
2022-11-15T03:37:41.681Z,11.37
2022-11-15T03:40:37.084Z,13.14
2022-11-15T03:43:29.779Z,14.27
2022-11-15T03:46:35.317Z,14.45
2022-11-15T03:49:36.721Z,13.26
2022-11-15T03:52:24.226Z,12.20
2022-11-15T03:55:15.217Z,11.51
2022-11-15T03:58:02.948Z,10.96
2022-11-15T04:00:50.176Z,11.01
2022-11-15T04:03:37.237Z,12.74
2022-11-15T04:06:25.058Z,14.08
2022-11-15T04:09:12.281Z,14.52
2022-11-15T04:11:59.486Z,13.54
2022-11-15T04:15:06.240Z,12.56
2022-11-15T04:17:56.242Z,11.65
2022-11-15T04:21:02.129Z,11.01
2022-11-15T04:24:07.753Z,11.23
2022-11-15T04:26:54.630Z,13.02
2022-11-15T04:29:41.868Z,14.06
2022-11-15T04:32:29.346Z,14.40
2022-11-15T04:35:16.707Z,13.31
2022-11-15T04:38:06.103Z,12.22
2022-11-15T04:40:53.391Z,11.32
2022-11-15T04:43:40.234Z,10.71
2022-11-15T04:46:27.993Z,10.78
2022-11-15T04:49:14.813Z,12.53
2022-11-15T04:52:02.028Z,13.78
2022-11-15T04:54:48.773Z,14.09
2022-11-15T04:57:35.839Z,12.99
2022-11-15T05:00:23.165Z,11.96
2022-11-15T05:03:29.650Z,11.24
2022-11-15T05:06:16.887Z,10.66
2022-11-15T05:09:04.449Z,10.84
2022-11-15T05:11:51.646Z,12.70
2022-11-15T05:14:38.594Z,14.08
2022-11-15T05:17:25.443Z,14.50
2022-11-15T05:20:12.653Z,13.48
2022-11-15T05:22:59.503Z,12.48
2022-11-15T05:25:47.023Z,11.73
2022-11-15T05:28:35.047Z,11.17
2022-11-15T05:31:23.121Z,10.74
2022-11-15T05:34:10.669Z,11.00
2022-11-15T05:36:57.712Z,12.87
2022-11-15T05:39:44.992Z,14.22
2022-11-15T05:42:32.245Z,14.64
2022-11-15T05:45:23.864Z,13.65
2022-11-15T05:48:15.098Z,12.57
2022-11-15T05:51:04.012Z,11.79
2022-11-15T05:53:53.212Z,11.24
2022-11-15T05:56:40.466Z,10.79
2022-11-15T05:59:31.703Z,10.99
2022-11-15T06:02:18.862Z,12.82
2022-11-15T06:05:06.482Z,14.13
2022-11-15T06:07:53.427Z,14.56
2022-11-15T06:10:40.625Z,13.53
2022-11-15T06:13:27.975Z,12.49
2022-11-15T06:16:15.446Z,11.78
2022-11-15T06:19:02.421Z,11.25
2022-11-15T06:21:49.543Z,11.33
2022-11-15T06:24:36.637Z,13.10
2022-11-15T06:27:23.497Z,14.36
2022-11-15T06:30:11.152Z,14.68
2022-11-15T06:33:03.212Z,13.66
2022-11-15T06:35:49.983Z,12.65
2022-11-15T06:38:37.575Z,11.89
2022-11-15T06:41:24.711Z,11.30
2022-11-15T06:44:11.988Z,11.37
2022-11-15T06:46:58.893Z,13.12
2022-11-15T06:49:45.992Z,14.42
2022-11-15T06:52:33.595Z,14.78
2022-11-15T06:55:20.845Z,13.78
2022-11-15T06:58:07.660Z,12.79
2022-11-15T07:00:55.393Z,12.07
2022-11-15T07:03:43.512Z,11.53
2022-11-15T07:06:30.653Z,11.10
2022-11-15T07:09:17.818Z,11.30
2022-11-15T07:12:07.907Z,13.11
2022-11-15T07:14:55.209Z,14.41
2022-11-15T07:17:42.438Z,14.79
2022-11-15T07:20:29.779Z,13.82
2022-11-15T07:23:17.236Z,12.84
2022-11-15T07:26:04.448Z,12.13
2022-11-15T07:28:51.877Z,11.60
2022-11-15T07:31:39.159Z,11.18
2022-11-15T07:34:26.370Z,11.41
2022-11-15T07:37:14.544Z,13.24
2022-11-15T07:40:01.762Z,14.57
2022-11-15T07:42:54.780Z,14.98
2022-11-15T07:45:46.338Z,13.92
2022-11-15T07:48:43.218Z,12.91
2022-11-15T07:51:31.194Z,12.16
2022-11-15T07:54:17.957Z,11.63
2022-11-15T07:57:07.620Z,11.20
2022-11-15T07:59:55.086Z,11.44
2022-11-15T08:02:42.580Z,13.32
2022-11-15T08:05:30.119Z,14.65
2022-11-15T08:08:17.718Z,15.05
2022-11-15T08:11:05.059Z,14.04
2022-11-15T08:13:52.724Z,13.07
2022-11-15T08:16:39.814Z,12.36
2022-11-15T08:19:26.555Z,11.80
2022-11-15T08:22:14.004Z,11.37
2022-11-15T08:25:01.055Z,10.99
2022-11-15T08:27:47.981Z,11.27
2022-11-15T08:30:42.691Z,13.13
2022-11-15T08:33:30.861Z,14.52
2022-11-15T08:36:18.721Z,14.95
2022-11-15T08:39:06.358Z,13.95
2022-11-15T08:41:53.502Z,12.98
2022-11-15T08:44:40.272Z,12.29
2022-11-15T08:47:27.698Z,11.77
2022-11-15T08:50:14.653Z,11.34
2022-11-15T08:53:09.489Z,10.99
2022-11-15T08:55:56.452Z,11.25
2022-11-15T08:58:43.944Z,13.13
2022-11-15T09:01:30.885Z,14.46
2022-11-15T09:04:18.491Z,14.88
2022-11-15T09:07:05.624Z,13.93
2022-11-15T09:09:52.969Z,12.98
2022-11-15T09:12:40.205Z,12.27
2022-11-15T09:15:27.137Z,11.73
2022-11-15T09:18:14.688Z,11.29
2022-11-15T09:21:05.141Z,10.92
2022-11-15T09:23:53.229Z,11.19
2022-11-15T09:26:41.371Z,13.15
2022-11-15T09:29:28.204Z,14.17
2022-11-15T09:32:15.496Z,13.38
2022-11-15T09:35:02.631Z,12.46
2022-11-15T09:37:54.980Z,11.80
2022-11-15T09:40:43.836Z,11.29
2022-11-15T09:43:55.766Z,10.91
2022-11-15T09:47:10.183Z,11.37
2022-11-15T09:50:02.142Z,13.54
2022-11-15T09:52:37.697Z,14.70
2022-11-15T09:55:09.595Z,15.11
2022-11-15T09:58:10.947Z,14.30
2022-11-15T10:00:49.950Z,13.23
2022-11-15T10:03:34.620Z,12.56
2022-11-15T10:06:07.727Z,12.04
2022-11-15T10:08:39.203Z,11.65
2022-11-15T10:14:05.681Z,10.99
2022-11-15T10:16:43.024Z,11.20
2022-11-15T10:19:42.690Z,13.00
2022-11-15T10:22:27.702Z,14.58
2022-11-15T10:25:13.516Z,15.06
2022-11-15T10:27:44.442Z,14.15
2022-11-15T10:30:18.447Z,13.30
2022-11-15T10:32:48.966Z,12.66
2022-11-15T10:35:19.186Z,12.16
2022-11-15T10:37:47.455Z,11.75
2022-11-15T10:40:22.835Z,11.43
2022-11-15T10:43:06.635Z,11.13
2022-11-15T10:45:35.543Z,11.41
2022-11-15T10:48:12.872Z,13.14
2022-11-15T10:50:46.775Z,14.55
2022-11-15T10:53:27.922Z,15.09
2022-11-15T10:56:00.735Z,14.26
2022-11-15T10:58:33.709Z,13.38
2022-11-15T11:01:21.321Z,12.72
2022-11-15T11:04:03.211Z,12.17
2022-11-15T11:06:47.014Z,11.75
2022-11-15T11:09:39.948Z,11.40
2022-11-15T11:12:12.866Z,11.72
2022-11-15T11:14:41.165Z,13.47
2022-11-15T11:17:32.885Z,14.76
2022-11-15T11:20:24.447Z,15.20
2022-11-15T11:23:33.378Z,14.21
2022-11-15T13:42:33.881Z,14.39
2022-11-15T13:45:05.739Z,15.28
2022-11-15T13:47:34.167Z,14.65
2022-11-15T13:50:02.760Z,13.76
2022-11-15T13:52:38.012Z,13.05
2022-11-15T13:55:20.773Z,12.48
2022-11-15T13:58:01.928Z,12.00
2022-11-15T14:00:41.560Z,12.12
2022-11-15T14:03:26.718Z,13.81
2022-11-15T14:06:16.135Z,15.12
2022-11-15T14:09:41.019Z,15.52
2022-11-15T14:12:35.488Z,14.32
2022-11-15T14:15:35.002Z,13.40
2022-11-15T14:18:04.200Z,12.70
2022-11-15T14:20:35.632Z,12.24
2022-11-15T14:23:07.168Z,11.82
2022-11-15T14:25:36.576Z,11.89
2022-11-15T14:28:23.519Z,13.38
2022-11-15T14:30:54.373Z,14.65
2022-11-15T14:33:37.323Z,15.11
2022-11-15T14:36:18.758Z,14.23
2022-11-15T14:38:48.214Z,13.21
2022-11-15T14:41:23.794Z,12.45
2022-11-15T14:43:53.231Z,11.85
2022-11-15T14:46:21.874Z,11.40
2022-11-15T14:48:50.107Z,11.47
2022-11-15T14:51:19.592Z,13.05
2022-11-15T14:53:48.626Z,14.38
2022-11-15T14:56:20.333Z,14.88
2022-11-15T14:58:48.688Z,14.05
2022-11-15T15:01:26.462Z,13.08
2022-11-15T15:03:59.315Z,12.32
2022-11-15T15:06:27.695Z,11.79
2022-11-15T15:08:56.184Z,11.37
2022-11-15T15:11:27.795Z,11.49
2022-11-15T15:13:58.129Z,13.17
2022-11-15T15:16:26.501Z,14.42
2022-11-15T15:18:55.072Z,14.94
2022-11-15T15:21:33.588Z,14.17
2022-11-15T15:24:04.109Z,13.11
2022-11-15T15:52:09.565Z,13.88
2022-11-15T15:54:38.206Z,14.65
2022-11-15T15:57:08.136Z,14.00
2022-11-15T15:59:36.403Z,13.10
2022-11-15T16:02:07.239Z,12.41
2022-11-15T16:04:35.565Z,11.86
2022-11-15T16:07:05.411Z,11.43
2022-11-15T16:09:52.238Z,11.50
2022-11-15T16:12:20.578Z,13.26
2022-11-15T16:14:48.837Z,14.52
2022-11-15T16:17:20.966Z,15.01
2022-11-15T16:19:49.327Z,14.20
2022-11-15T16:22:17.631Z,13.27
2022-11-15T16:24:45.877Z,12.55
2022-11-15T16:27:21.440Z,12.01
2022-11-15T16:29:50.122Z,11.55
2022-11-15T16:32:18.478Z,11.59
2022-11-15T16:34:49.242Z,13.15
2022-11-15T16:37:24.427Z,14.53
2022-11-15T16:39:55.981Z,15.06
2022-11-15T16:42:26.771Z,14.25
2022-11-15T16:44:55.174Z,13.34
2022-11-15T16:47:23.750Z,12.62
2022-11-15T16:49:52.027Z,12.07
2022-11-15T16:52:21.606Z,11.65
2022-11-15T16:54:50.038Z,11.69
2022-11-15T16:57:18.253Z,13.24
2022-11-15T16:59:46.531Z,14.57
2022-11-15T17:02:15.254Z,15.10
2022-11-15T17:04:43.491Z,14.33
2022-11-15T17:07:12.167Z,13.40
2022-11-15T17:09:40.578Z,12.68
2022-11-15T17:12:11.759Z,12.13
2022-11-15T17:14:39.990Z,11.69
2022-11-15T17:17:10.267Z,11.70
2022-11-15T17:19:38.611Z,13.22
2022-11-15T17:22:06.944Z,14.54
2022-11-15T17:24:35.267Z,15.06
2022-11-15T17:27:03.882Z,14.30
2022-11-15T17:29:32.270Z,13.37
2022-11-15T17:32:00.624Z,12.65
2022-11-15T17:34:28.942Z,12.10
2022-11-15T17:36:57.154Z,11.63
2022-11-15T17:39:27.372Z,11.68
2022-11-15T17:41:56.059Z,13.23
2022-11-15T17:44:24.556Z,14.56
2022-11-15T17:46:52.848Z,15.10
2022-11-15T17:49:21.083Z,14.36
2022-11-15T17:51:50.232Z,13.43
2022-11-15T17:54:19.074Z,12.68
2022-11-15T17:56:47.715Z,12.12
2022-11-15T17:59:21.170Z,11.68
2022-11-15T18:01:50.843Z,11.69
2022-11-15T18:04:19.351Z,13.21
2022-11-15T18:06:47.712Z,14.53
2022-11-15T18:09:16.326Z,15.06
2022-11-15T18:11:50.813Z,14.31
2022-11-15T18:14:19.695Z,13.34
2022-11-15T18:16:47.998Z,12.62
2022-11-15T18:19:16.415Z,12.07
2022-11-15T18:21:58.902Z,11.63
2022-11-15T18:24:31.150Z,11.74
2022-11-15T18:27:01.055Z,13.31
2022-11-15T18:29:29.773Z,14.61
2022-11-15T18:31:59.152Z,15.14
2022-11-15T18:34:32.212Z,14.37
2022-11-15T18:37:03.135Z,13.38
2022-11-15T18:39:31.877Z,12.64
2022-11-15T18:42:01.138Z,12.10
2022-11-15T18:44:30.445Z,11.66
2022-11-15T18:46:59.074Z,11.71
2022-11-15T18:49:27.386Z,13.23
2022-11-15T18:51:57.080Z,14.56
2022-11-15T18:54:30.838Z,15.09
2022-11-15T18:57:00.211Z,14.29
2022-11-15T18:59:29.616Z,13.38
2022-11-15T19:01:58.220Z,12.64
2022-11-15T19:04:26.673Z,12.09
2022-11-15T19:06:55.153Z,12.02
2022-11-15T19:09:27.395Z,13.44
2022-11-15T19:11:56.338Z,14.76
2022-11-15T19:14:26.361Z,15.25
2022-11-15T19:16:55.357Z,14.45
2022-11-15T19:19:27.782Z,13.52
2022-11-15T19:21:57.664Z,12.78
2022-11-15T19:24:27.437Z,12.24
2022-11-15T19:26:55.935Z,11.79
2022-11-15T19:29:24.255Z,11.85
2022-11-15T19:31:52.907Z,13.37
2022-11-15T19:34:21.159Z,14.69
2022-11-15T19:36:49.660Z,15.23
2022-11-15T19:39:18.631Z,14.50
2022-11-15T19:41:47.575Z,13.56
2022-11-15T19:44:16.322Z,12.84
2022-11-15T19:46:44.902Z,12.30
2022-11-15T19:49:13.430Z,11.84
2022-11-15T19:51:42.900Z,11.89
2022-11-15T19:54:14.058Z,13.47
2022-11-15T19:56:42.510Z,14.76
2022-11-15T19:59:12.090Z,15.28
2022-11-15T20:01:42.238Z,14.52
2022-11-15T20:04:10.691Z,13.58
2022-11-15T20:06:41.719Z,12.87
2022-11-15T20:09:14.782Z,12.30
2022-11-15T20:11:43.562Z,11.85
2022-11-15T20:14:13.303Z,11.92
2022-11-15T20:16:42.051Z,13.49
2022-11-15T20:19:12.746Z,14.79
2022-11-15T20:21:42.561Z,15.32
2022-11-15T20:24:11.375Z,14.57
2022-11-15T20:26:39.818Z,13.64
2022-11-15T20:29:09.984Z,12.93
2022-11-15T20:31:38.770Z,12.39
2022-11-15T20:34:07.446Z,12.36
2022-11-15T20:36:36.356Z,13.83
2022-11-15T20:39:04.639Z,15.11
2022-11-15T20:41:33.233Z,15.60
2022-11-15T20:44:03.092Z,14.84
2022-11-15T20:46:31.547Z,13.91
2022-11-15T20:48:59.936Z,13.20
2022-11-15T20:51:28.273Z,12.65
2022-11-15T20:53:56.728Z,12.20
2022-11-15T20:56:25.414Z,12.26
2022-11-15T20:58:54.894Z,13.79
2022-11-15T21:01:25.003Z,15.09
2022-11-15T21:03:58.164Z,15.60
2022-11-15T21:06:27.866Z,14.83
2022-11-15T21:09:15.317Z,13.91
2022-11-15T21:12:02.585Z,13.12
2022-11-15T21:14:31.181Z,12.54
2022-11-15T21:16:59.717Z,12.50
2022-11-15T21:19:34.076Z,13.97
2022-11-15T21:22:05.690Z,15.28
2022-11-15T21:24:34.091Z,15.77
2022-11-15T21:27:02.401Z,15.00
2022-11-15T21:29:37.694Z,14.06
2022-11-15T21:32:08.359Z,13.30
2022-11-15T21:34:37.562Z,12.75
2022-11-15T21:37:06.763Z,12.69
2022-11-15T21:39:35.239Z,14.15
2022-11-15T21:42:03.628Z,15.42
2022-11-15T21:44:32.262Z,15.90
2022-11-15T21:47:19.091Z,15.13
2022-11-15T21:49:47.536Z,14.08
2022-11-15T21:52:15.880Z,13.37
2022-11-15T21:54:44.643Z,12.82
2022-11-15T21:57:13.186Z,12.74
2022-11-15T22:00:01.387Z,14.20
2022-11-15T22:02:29.859Z,15.57
2022-11-15T22:04:58.136Z,16.03
2022-11-15T22:07:26.554Z,15.25
2022-11-15T22:09:55.339Z,14.27
2022-11-15T22:12:28.444Z,13.52
2022-11-15T22:14:58.438Z,12.94
2022-11-15T22:17:46.981Z,12.48
2022-11-15T22:20:43.088Z,12.66
2022-11-15T22:23:05.648Z,14.43
2022-11-15T22:25:34.286Z,15.56
2022-11-15T22:28:02.621Z,15.98
2022-11-15T22:30:30.936Z,15.20
2022-11-15T22:32:59.735Z,14.23
2022-11-15T22:35:27.983Z,13.50
2022-11-15T22:37:56.299Z,12.94
2022-11-15T22:40:24.712Z,12.83
2022-11-15T22:42:53.235Z,14.21
2022-11-15T22:45:21.917Z,15.46
2022-11-15T22:47:50.372Z,15.95
2022-11-15T22:50:19.244Z,15.17
2022-11-15T22:52:47.590Z,14.20
2022-11-15T22:55:16.217Z,13.47
2022-11-15T22:57:44.573Z,12.90
2022-11-15T23:00:15.911Z,12.45
2022-11-15T23:02:51.779Z,12.53
2022-11-15T23:05:21.635Z,14.14
2022-11-15T23:07:49.944Z,15.36
2022-11-15T23:10:37.309Z,15.84
2022-11-15T23:13:17.648Z,14.95
2022-11-15T23:16:09.598Z,13.95
2022-11-15T23:18:41.965Z,13.16
2022-11-15T23:21:14.976Z,12.62
2022-11-15T23:23:43.498Z,12.63
2022-11-15T23:26:12.142Z,14.13
2022-11-15T23:28:40.438Z,15.39
2022-11-15T23:31:28.798Z,15.88
2022-11-15T23:33:59.733Z,14.97
2022-11-15T23:36:29.574Z,14.03
2022-11-15T23:38:58.854Z,13.32
2022-11-15T23:41:27.147Z,12.77
2022-11-15T23:43:56.148Z,12.74
2022-11-15T23:46:24.898Z,14.21
2022-11-15T23:48:53.463Z,15.46
2022-11-15T23:51:22.025Z,15.94
2022-11-15T23:53:50.750Z,15.18
2022-11-15T23:56:20.788Z,14.23
2022-11-15T23:58:50.095Z,13.48
